Aérodrome :
LOGIN :

S'inscrire | Disclaimer

   EN    FR    IT 

 










Légende :    VFR   VFR Marginal   IFR   IFR Intensif   IFR Très Intensif
Visi : 
Plafond : 
>= 8 km
>= 3000ft
5 à 8 km
1000 à 3000 ft
1500m à 5 km
500 à 1000 ft
800 à 1500m
200 à 500 ft
< 800m
< 200 ft
Symboles :   Orages  Brouillard  Fortes neiges  Fortes précipitations  Vent > 20 kt
SIGMETs :   Divers  Orages  Givrage  Turbulence  Onde Orograph.  Cendres Volcan.






- Altitude de l'aérodrome : 226 ft
- Code IATA : BEX


EGUB - RAF Benson

DERNIER METAR :
  • 301850Z AUTO 22005KT 9999 FEW033/// 16/09 Q1012 RERA

METARs EXPIRÉS :
  • 301750Z AUTO 19003KT 9999 SCT130/// 16/10 Q1012
  • 301720Z 26002KT 9999 FEW035CB SCT130 16/10 Q1011 TEMPO 7000 SHRA RMK BLU TEMPO WHT
  • 301650Z 22002KT 9999 -SHRA FEW035CB BKN060 BKN080 15/10 Q1011 TEMPO 7000 SHRA RMK BLU TEMPO WHT
  • 301620Z 05002KT 9999 VCSH FEW035CB BKN049 BKN070 15/11 Q1012 TEMPO 5000 TSRA RMK BLU TEMPO WHT

TAF TAF EGUB
Valide du 30 à 18h jusqu'au 01 à 03h UTC


301635Z 3018/0103 22008KT 9999 SCT040
TEMPO 3018/0102 7000 SHRA
PROB40
TEMPO 3018/3024 4000 +SHRA BKN028CB
PROB30
TEMPO 3018/3020 3000 +TSGS
PROB40
TEMPO 0100/0102 4000 +SHRA
PROB30
TEMPO 0102/0103 5000 BR SCT009
ATIS : +44 1491-837766 (x7524)



MET'MAP, la Météo Aéronautique d'un coup d'oeil ! - Copyright ORBIFLY Décembre 2007 - Disclaimer

ORBIFLY MET'MAP TEAM :

Programmation & Développement : Alexandra Zaïnal
Sur une idée originale de : Baudouin d'Aumeries
Soutien technique & logistique : Manuel Goepfert
Assistance : Marc-Olivier Méhu




SOURCES & CREDITS :

   NOAA